Stations

Station Name Date Time Temperature Relative Humidity Precipitation Wind Speed Wind Direction Create Custom Report Daily Report Hourly Report
Aberdeen VT 2017-20-11 20:15
Bee Lake 2017-20-11 20:15 40.7 89.50 0.00 0.00 SE
Brooksville 2017-20-11 20:15 36.4 92.40 0.00 0.00 NE
Brooksville2 VT 2017-20-11 20:15 38.4 79.52 0.00
Brown Loam Exp Stn VT 2017-20-11 20:15 35.8 94.15 0.00
Clarksdale VT 2017-20-11 20:15
COOP Stoneville 2017-20-11 7:00 31.0 94 0.00
Hickory Flat VT 2017-20-11 20:15
Jackson Co 2017-20-11 20:15 42.0 98.90 0.02 0.00 ESE
Longwood VT 2017-20-11 20:15 38.2 78.68 0.00
Lyon 2017-20-11 20:15 41.3 65.16 0.00 1.84 SSE
Macon VT 2017-20-11 20:15 39.9 89.04 0.00
Mound Bayou 2017-20-11 20:15 42.7 64.34 0.00 1.93 S
Olive Branch VT 2017-20-11 20:15
Olive Branch2 VT 2017-20-11 20:15
Pontotoc AWS COOP 2017-20-11 20:15 43.7 62.34 0.00
Prairie 2017-20-11 20:15 38.3 64.92 0.00 1.22 S
Sidon 2017-20-11 20:15 41.4 85.20 0.00 2.56 SSE
Stockett Farm 2017-20-11 20:15 41.7 96.60 0.00 0.00 WSW
Stoneville AWS 2017-20-11 20:15 42.4 65.45 0.00 2.41 S
Stoneville SW 2017-20-11 20:15 41.7 62.39 0.00 2.76 S
Stoneville W 2017-20-11 20:15 40.3 73.27 0.00 2.09 SSW
Thighman 2017-20-11 20:15 42.7 71.70 0.00 3.56 SE
Tribbett 2017-20-11 20:15 44.1 64.05 0.00 3.76 E
Verona 2017-20-11 20:15 45.5 59.04 0.00 1.64 SE